Time;durP1;ratioP1;P1;durP2;ratioP2;P2;SDS_P1;SDS_P2;PMS_P1;PMS_P2;Temp;Humidity;BMP_temperature;BMP_pressure;BME280_temperature;BME280_humidity;BME280_pressure;Samples;Min_cycle;Max_cycle;Signal;HPM_P1;HPM_P2
2022/06/30 00:02:17;;;;;;;23.17;12.03;;;;;;;24.20;48.86;100330.17;123490;1099;104254;-80
2022/06/30 00:04:48;;;;;;;21.80;12.18;;;;;;;24.19;49.15;100328.39;123496;1099;105019;-80
2022/06/30 00:07:19;;;;;;;23.43;12.73;;;;;;;24.23;49.12;100317.56;123472;1099;104252;-80
2022/06/30 00:09:51;;;;;;;20.43;12.10;;;;;;;24.32;49.59;100318.25;123531;1099;104385;-79
2022/06/30 00:12:22;;;;;;;19.47;11.27;;;;;;;24.36;49.20;100315.46;123518;1099;104870;-80
2022/06/30 00:14:54;;;;;;;21.27;11.50;;;;;;;24.39;49.12;100320.75;123515;1099;104280;-80
2022/06/30 00:17:25;;;;;;;20.57;11.47;;;;;;;24.41;49.35;100316.22;123494;1099;104251;-80
2022/06/30 00:19:57;;;;;;;24.25;11.85;;;;;;;24.44;49.37;100307.23;123565;1099;104371;-81
2022/06/30 00:22:28;;;;;;;22.60;11.20;;;;;;;24.46;49.13;100309.88;123671;1099;104268;-80
2022/06/30 00:24:59;;;;;;;20.63;11.87;;;;;;;24.50;49.74;100319.62;123621;1099;104237;-80
2022/06/30 00:27:31;;;;;;;19.30;11.77;;;;;;;24.52;49.37;100312.41;123593;1099;104191;-80
2022/06/30 00:30:03;;;;;;;19.97;11.07;;;;;;;24.56;49.33;100311.42;123528;1098;104300;-79
2022/06/30 00:32:36;;;;;;;19.62;11.63;;;;;;;24.57;49.56;100321.24;123588;1099;104384;-80
2022/06/30 00:35:09;;;;;;;19.00;11.63;;;;;;;24.58;49.31;100315.84;123570;1099;104633;-81
2022/06/30 00:37:40;;;;;;;19.80;11.53;;;;;;;24.61;49.40;100304.16;124014;1099;104290;-80
2022/06/30 00:40:13;;;;;;;21.43;11.27;;;;;;;24.66;49.73;100304.05;123643;1099;104320;-79
2022/06/30 00:42:44;;;;;;;18.43;10.67;;;;;;;24.65;49.36;100303.17;123999;1099;104261;-79
2022/06/30 00:45:15;;;;;;;19.85;11.35;;;;;;;24.65;49.64;100304.95;123534;1099;104434;-78
2022/06/30 00:47:48;;;;;;;19.70;10.90;;;;;;;24.65;48.96;100294.22;123568;1099;104280;-79
2022/06/30 00:50:20;;;;;;;18.50;10.75;;;;;;;24.69;49.13;100296.79;123593;1099;104267;-80
2022/06/30 00:52:53;;;;;;;17.67;10.70;;;;;;;24.70;49.40;100298.56;123538;1099;104284;-80
2022/06/30 00:55:26;;;;;;;19.27;10.83;;;;;;;24.72;49.33;100301.20;123563;1099;104367;-80
2022/06/30 00:58:00;;;;;;;18.15;10.30;;;;;;;24.70;49.51;100290.52;123553;1099;104296;-80
2022/06/30 01:00:34;;;;;;;20.37;10.13;;;;;;;24.71;49.20;100297.66;123652;1099;104168;-80
2022/06/30 01:03:07;;;;;;;18.13;10.50;;;;;;;24.70;49.31;100297.69;123806;1099;110706;-80
2022/06/30 01:05:41;;;;;;;15.60;9.43;;;;;;;24.73;49.18;100287.75;123826;1099;104338;-81
2022/06/30 01:08:16;;;;;;;16.47;9.53;;;;;;;24.75;48.99;100291.27;123809;1099;104339;-80
2022/06/30 01:13:37;;;;;;;17.10;9.95;;;;;;;24.75;49.32;100291.27;123341;1099;104373;-79
2022/06/30 01:16:08;;;;;;;16.60;9.90;;;;;;;24.72;49.27;100285.98;123604;1099;104287;-79
2022/06/30 01:18:40;;;;;;;14.80;9.57;;;;;;;24.72;49.27;100295.84;123689;1099;104249;-80
2022/06/30 01:21:12;;;;;;;21.27;9.80;;;;;;;24.73;49.19;100300.30;123534;1099;104219;-80
2022/06/30 01:23:46;;;;;;;13.10;8.97;;;;;;;24.73;49.28;100302.98;123548;1099;104514;-80
2022/06/30 01:26:18;;;;;;;15.07;9.60;;;;;;;24.72;49.69;100299.39;123547;1099;104258;-80
2022/06/30 01:28:49;;;;;;;17.87;9.30;;;;;;;24.72;49.40;100296.70;123555;1099;104867;-79
2022/06/30 01:31:22;;;;;;;17.57;10.10;;;;;;;24.70;49.46;100300.38;123645;1099;104265;-79
2022/06/30 01:33:54;;;;;;;14.85;9.25;;;;;;;24.62;49.66;100303.25;123899;1099;119991;-79
2022/06/30 01:36:25;;;;;;;17.60;10.37;;;;;;;24.56;49.43;100296.20;123932;1099;104188;-81
2022/06/30 01:38:57;;;;;;;19.63;10.47;;;;;;;24.59;49.62;100297.97;123948;1099;104271;-80
2022/06/30 01:41:29;;;;;;;17.60;10.40;;;;;;;24.59;50.10;100292.60;123887;1099;104258;-79
2022/06/30 01:44:00;;;;;;;14.27;9.43;;;;;;;24.61;49.93;100296.11;123747;1099;104213;-80
2022/06/30 01:46:32;;;;;;;18.57;10.00;;;;;;;24.58;50.04;100299.75;123624;1099;104242;-81
2022/06/30 01:49:04;;;;;;;16.77;10.00;;;;;;;24.57;49.98;100297.10;123907;1099;104235;-80
2022/06/30 01:51:36;;;;;;;17.20;9.40;;;;;;;24.56;50.17;100308.73;124005;1099;104213;-80
2022/06/30 01:54:08;;;;;;;19.15;9.65;;;;;;;24.51;50.29;100303.48;124049;1099;104271;-80
2022/06/30 01:56:41;;;;;;;14.90;9.50;;;;;;;24.48;50.12;100306.25;123951;1099;104241;-80
2022/06/30 01:59:13;;;;;;;13.78;9.23;;;;;;;24.43;50.53;100309.95;123908;1098;104258;-80
2022/06/30 02:01:44;;;;;;;20.03;10.03;;;;;;;24.42;50.60;100309.08;123952;1098;104440;-79
2022/06/30 02:07:06;;;;;;;17.40;10.00;;;;;;;24.43;50.34;100307.27;124051;1099;104204;-81
2022/06/30 02:09:38;;;;;;;16.87;9.60;;;;;;;24.45;50.57;100305.42;124082;1099;104271;-81
2022/06/30 02:15:01;;;;;;;18.73;9.30;;;;;;;24.43;51.02;100302.77;123964;1099;107827;-79
2022/06/30 02:17:32;;;;;;;15.70;9.43;;;;;;;24.39;51.04;100307.34;123866;1099;104267;-79
2022/06/30 02:20:04;;;;;;;16.87;9.03;;;;;;;24.34;51.25;100309.27;123852;1099;104304;-79
2022/06/30 02:22:36;;;;;;;15.53;9.43;;;;;;;24.33;51.30;100309.30;123812;1099;104341;-79
2022/06/30 02:25:09;;;;;;;17.20;9.60;;;;;;;24.32;51.29;100311.08;123541;1099;104265;-79
2022/06/30 02:27:41;;;;;;;14.90;9.05;;;;;;;24.33;51.29;100307.48;123520;1099;104695;-80
2022/06/30 02:30:14;;;;;;;16.50;9.45;;;;;;;24.34;51.33;100311.05;123502;1099;104332;-79
2022/06/30 02:32:46;;;;;;;16.25;9.10;;;;;;;24.34;51.70;100303.00;123555;1098;104268;-79
2022/06/30 02:35:17;;;;;;;20.47;9.67;;;;;;;24.32;51.50;100307.53;123423;1099;104290;-79
2022/06/30 02:37:49;;;;;;;15.60;9.63;;;;;;;24.31;51.68;100316.48;123502;1099;104293;-79
2022/06/30 02:40:21;;;;;;;16.70;9.47;;;;;;;24.28;51.82;100306.73;123487;1099;104271;-80
2022/06/30 02:42:52;;;;;;;16.57;9.70;;;;;;;24.27;51.80;100304.95;123523;1099;104747;-79
2022/06/30 02:45:24;;;;;;;17.03;9.57;;;;;;;24.25;51.87;100305.90;123503;1099;104283;-79
2022/06/30 02:47:58;;;;;;;15.80;8.93;;;;;;;24.18;51.65;100306.08;123576;1099;104332;-80
2022/06/30 02:50:30;;;;;;;20.27;9.80;;;;;;;24.17;52.04;100314.16;123489;1099;104325;-80
2022/06/30 02:53:01;;;;;;;21.93;9.90;;;;;;;24.18;52.06;100305.17;123544;1099;104476;-80
2022/06/30 02:55:33;;;;;;;20.35;10.40;;;;;;;24.17;52.40;100298.07;123500;1099;104248;-80
2022/06/30 02:58:04;;;;;;;22.47;10.60;;;;;;;24.16;52.83;100305.20;123511;1099;104531;-80
2022/06/30 03:00:36;;;;;;;22.27;10.20;;;;;;;24.12;52.58;100306.22;123528;1099;104246;-80
2022/06/30 03:03:07;;;;;;;19.67;10.33;;;;;;;24.05;52.63;100305.45;123635;1099;104303;-79
2022/06/30 03:05:38;;;;;;;21.33;10.33;;;;;;;23.99;52.59;100308.28;123428;1099;104399;-80
2022/06/30 03:08:10;;;;;;;18.80;10.40;;;;;;;23.94;52.75;100312.00;123829;1099;104223;-79
2022/06/30 03:10:41;;;;;;;19.00;10.97;;;;;;;23.86;52.73;100314.84;123537;1099;104660;-79
2022/06/30 03:13:13;;;;;;;23.07;10.83;;;;;;;23.79;52.88;100316.72;123498;1099;104415;-79
2022/06/30 03:15:44;;;;;;;19.10;11.07;;;;;;;23.75;53.20;100311.47;123523;1098;104306;-80
2022/06/30 03:18:15;;;;;;;20.97;10.97;;;;;;;23.70;53.38;100319.63;123495;1099;104402;-80
2022/06/30 03:20:47;;;;;;;20.63;10.93;;;;;;;23.71;53.89;100323.18;123553;1099;104232;-80
2022/06/30 03:23:18;;;;;;;19.40;10.53;;;;;;;23.76;53.71;100326.63;123679;1099;104255;-80
2022/06/30 03:25:50;;;;;;;20.23;10.53;;;;;;;23.78;54.05;100332.83;123730;1099;104160;-80
2022/06/30 03:28:21;;;;;;;20.47;9.97;;;;;;;23.79;54.37;100323.89;123717;1099;104380;-80
2022/06/30 03:30:52;;;;;;;17.87;10.17;;;;;;;23.83;53.60;100323.79;123687;1099;104348;-80
2022/06/30 03:33:24;;;;;;;20.83;9.20;;;;;;;23.85;54.04;100323.79;123769;1098;104238;-80
2022/06/30 03:35:55;;;;;;;23.47;10.17;;;;;;;23.88;53.77;100321.05;123666;1099;104245;-80
2022/06/30 03:38:27;;;;;;;17.33;9.53;;;;;;;23.91;53.98;100325.46;123723;1099;104252;-80
2022/06/30 03:40:58;;;;;;;23.13;8.83;;;;;;;23.94;54.19;100323.59;123537;1099;104393;-80
2022/06/30 03:43:30;;;;;;;16.13;8.90;;;;;;;23.99;54.23;100323.48;123596;1099;104542;-79
2022/06/30 03:46:01;;;;;;;18.47;8.00;;;;;;;24.10;54.30;100320.56;123792;1098;104339;-81
2022/06/30 03:48:36;;;;;;;17.63;8.57;;;;;;;24.19;54.01;100317.67;124339;1099;104238;-79
2022/06/30 03:51:07;;;;;;;18.75;8.30;;;;;;;24.31;53.91;100312.02;124171;1098;104415;-80
2022/06/30 03:53:42;;;;;;;14.70;8.53;;;;;;;24.37;54.02;100314.55;123922;1099;104347;-80
2022/06/30 03:56:13;;;;;;;15.70;7.70;;;;;;;24.43;53.95;100310.82;123899;1099;104268;-80
2022/06/30 03:58:44;;;;;;;17.75;8.20;;;;;;;24.53;53.95;100311.50;123871;1099;104271;-80
2022/06/30 04:01:16;;;;;;;13.00;7.63;;;;;;;24.60;53.79;100315.80;123954;1099;104341;-80
2022/06/30 04:03:47;;;;;;;20.20;9.60;;;;;;;24.62;53.75;100318.44;123849;1099;104284;-80
2022/06/30 04:06:19;;;;;;;21.20;8.75;;;;;;;24.61;53.76;100324.75;124070;1099;104338;-80
2022/06/30 04:08:50;;;;;;;20.73;8.50;;;;;;;24.66;53.89;100317.45;123834;1099;104383;-81
2022/06/30 04:11:22;;;;;;;14.93;8.60;;;;;;;24.74;54.10;100321.72;124145;1098;104230;-81
2022/06/30 04:13:53;;;;;;;16.93;8.47;;;;;;;24.83;53.86;100322.39;124354;1099;104264;-80
2022/06/30 04:16:24;;;;;;;19.33;9.20;;;;;;;24.86;54.01;100320.50;124395;1099;104264;-82
2022/06/30 04:18:57;;;;;;;15.73;8.40;;;;;;;24.94;53.91;100318.48;124768;1099;104392;-80
2022/06/30 04:21:28;;;;;;;15.63;8.37;;;;;;;25.00;53.83;100314.77;124497;1099;104275;-79
2022/06/30 04:24:00;;;;;;;16.27;8.57;;;;;;;24.97;53.71;100317.53;123727;1099;104267;-80
2022/06/30 04:26:31;;;;;;;15.83;8.50;;;;;;;24.95;53.79;100316.70;123419;1099;104249;-80
2022/06/30 04:29:03;;;;;;;17.97;8.27;;;;;;;25.00;53.48;100317.45;123592;1099;104275;-79
2022/06/30 04:34:23;;;;;;;18.23;8.77;;;;;;;24.98;53.40;100321.99;123747;1099;104609;-80
2022/06/30 04:36:55;;;;;;;24.73;8.93;;;;;;;25.03;53.72;100317.38;123843;1099;104370;-79
2022/06/30 04:39:27;;;;;;;18.03;8.90;;;;;;;25.09;53.51;100319.89;123921;1099;104760;-80
2022/06/30 04:41:59;;;;;;;23.20;9.07;;;;;;;25.12;53.61;100310.88;124113;1098;104383;-80
2022/06/30 04:44:30;;;;;;;19.63;9.20;;;;;;;25.07;53.55;100313.69;123825;1098;104654;-80
2022/06/30 04:47:02;;;;;;;16.60;8.93;;;;;;;25.01;53.52;100311.17;123741;1099;104405;-79
2022/06/30 04:49:33;;;;;;;15.53;9.03;;;;;;;25.04;53.57;100305.72;123832;1099;104351;-79
2022/06/30 04:52:05;;;;;;;14.63;8.10;;;;;;;25.10;53.32;100310.02;124060;1098;104252;-80
2022/06/30 04:54:37;;;;;;;16.67;8.33;;;;;;;25.10;53.32;100310.92;124010;1099;104251;-80
2022/06/30 04:57:09;;;;;;;20.10;9.13;;;;;;;25.11;53.11;100317.16;123934;1098;104539;-81
2022/06/30 04:59:40;;;;;;;16.17;8.73;;;;;;;25.12;53.12;100316.25;124213;1099;104332;-80
2022/06/30 05:02:14;;;;;;;16.67;8.40;;;;;;;25.15;53.45;100316.17;124097;1099;104376;-80
2022/06/30 05:04:47;;;;;;;16.53;9.20;;;;;;;25.16;53.61;100317.03;124040;1099;104252;-81
2022/06/30 05:07:18;;;;;;;18.23;8.53;;;;;;;25.24;53.21;100313.23;125011;1099;104204;-80
2022/06/30 05:09:50;;;;;;;15.30;8.80;;;;;;;25.30;53.54;100309.50;125132;1099;104275;-81
2022/06/30 05:12:21;;;;;;;14.37;8.33;;;;;;;25.35;53.49;100304.00;125625;1099;104271;-80
2022/06/30 05:14:53;;;;;;;14.37;7.70;;;;;;;25.44;53.18;100314.48;125348;1099;104313;-81
2022/06/30 05:17:25;;;;;;;19.87;8.27;;;;;;;25.53;53.06;100310.66;124569;1099;104242;-81
2022/06/30 05:19:57;;;;;;;17.23;8.53;;;;;;;25.55;52.76;100311.48;124735;1099;104412;-80
2022/06/30 05:22:31;;;;;;;19.00;8.50;;;;;;;25.54;53.05;100301.66;124582;1099;104245;-81
2022/06/30 05:28:01;;;;;;;16.17;8.07;;;;;;;25.68;52.71;100310.21;124339;1099;104367;-82
2022/06/30 05:30:36;;;;;;;21.45;9.05;;;;;;;25.78;52.67;100313.49;124458;1099;104209;-81
2022/06/30 05:33:09;;;;;;;16.43;8.67;;;;;;;25.88;52.58;100314.09;124570;1099;103320;-80
2022/06/30 05:35:42;;;;;;;14.47;8.33;;;;;;;25.94;52.45;100312.08;124865;1099;104182;-81
2022/06/30 05:38:16;;;;;;;21.50;8.97;;;;;;;25.97;52.86;100320.08;125016;1099;104361;-80
2022/06/30 05:40:49;;;;;;;16.47;8.47;;;;;;;26.05;52.87;100325.22;124886;1099;103782;-81
2022/06/30 05:43:22;;;;;;;19.98;8.35;;;;;;;26.08;52.67;100325.13;124709;1099;103059;-78
2022/06/30 05:45:56;;;;;;;13.55;8.58;;;;;;;26.12;52.33;100329.48;124604;1099;104169;-81
2022/06/30 05:48:30;;;;;;;16.93;8.27;;;;;;;26.21;52.59;100324.74;124960;1099;104497;-81
2022/06/30 05:51:04;;;;;;;22.47;8.07;;;;;;;26.32;52.12;100319.92;125079;1099;104198;-78
2022/06/30 05:53:38;;;;;;;15.37;8.13;;;;;;;26.35;52.38;100328.76;125066;1099;104188;-80
2022/06/30 05:59:14;;;;;;;17.87;8.50;;;;;;;26.44;52.21;100345.52;124941;1099;104849;-81
2022/06/30 06:01:56;;;;;;;;;;;;;;;26.53;52.14;100355.98;125002;1099;104716;-81
2022/06/30 06:04:30;;;;;;;18.87;7.97;;;;;;;26.62;51.86;100346.74;126799;1099;102815;-79
2022/06/30 06:07:08;;;;;;;13.77;8.27;;;;;;;26.64;51.67;100337.66;125063;1099;104214;-80
2022/06/30 06:09:43;;;;;;;21.20;8.30;;;;;;;26.72;51.62;100332.06;125513;1098;115057;-81
2022/06/30 06:15:45;;;;;;;16.90;7.83;;;;;;;26.83;51.00;100343.36;125087;1099;104184;-80
2022/06/30 06:18:19;;;;;;;13.90;8.20;;;;;;;26.90;50.75;100336.81;124865;1099;103205;-80
2022/06/30 06:21:00;;;;;;;15.65;7.50;;;;;;;26.93;51.36;100324.17;124895;1099;104246;-81
2022/06/30 06:23:33;;;;;;;20.80;7.57;;;;;;;27.02;51.22;100327.44;125091;1099;104676;-82
2022/06/30 06:26:05;;;;;;;15.00;7.70;;;;;;;27.08;50.80;100320.94;125081;1098;104307;-80
2022/06/30 06:31:27;;;;;;;12.87;7.27;;;;;;;27.19;50.66;100321.45;125044;1099;104251;-81
2022/06/30 06:34:00;;;;;;;17.40;7.57;;;;;;;27.22;50.82;100326.73;125137;1099;104159;-80
2022/06/30 06:36:33;;;;;;;14.47;7.40;;;;;;;27.25;50.22;100326.62;125179;1099;103197;-79
2022/06/30 06:39:07;;;;;;;13.22;7.60;;;;;;;27.31;50.03;100320.14;116099;1099;10001784;-80
2022/06/30 06:41:42;;;;;;;15.13;7.30;;;;;;;27.36;50.27;100326.27;124749;1102;103465;-80
2022/06/30 06:44:16;;;;;;;17.77;7.73;;;;;;;27.43;50.13;100322.39;124837;1102;103480;-81
2022/06/30 06:46:49;;;;;;;12.30;7.50;;;;;;;27.58;50.08;100318.25;124806;1102;104473;-80
2022/06/30 06:49:58;;;;;;;14.77;7.53;;;;;;;27.66;49.89;100307.19;124848;1103;104369;-79
2022/06/30 06:52:40;;;;;;;16.10;7.30;;;;;;;27.81;49.66;100300.30;124882;1102;104245;-80
2022/06/30 06:55:20;;;;;;;14.10;7.43;;;;;;;27.93;49.73;100307.05;124694;1102;104422;-81
2022/06/30 06:58:08;;;;;;;14.13;7.57;;;;;;;28.01;49.36;100317.56;124744;1102;104289;-81
2022/06/30 07:00:41;;;;;;;14.93;7.70;;;;;;;28.07;48.80;100317.31;124628;1102;105367;-81
2022/06/30 07:03:16;;;;;;;17.98;7.53;;;;;;;28.15;48.59;100310.66;124518;1103;104509;-80
2022/06/30 07:05:47;;;;;;;15.80;7.33;;;;;;;28.25;48.70;100316.58;125090;1099;104160;-80
2022/06/30 07:08:27;;;;;;;14.73;7.80;;;;;;;28.40;48.20;100324.98;124650;1099;104070;-81
2022/06/30 07:11:03;;;;;;;14.80;7.70;;;;;;;28.53;48.10;100323.51;126931;1098;112405;-79
2022/06/30 07:13:42;;;;;;;13.20;7.57;;;;;;;28.67;47.84;100326.56;126295;1099;102091;-81
2022/06/30 07:16:20;;;;;;;13.13;6.60;;;;;;;28.79;47.38;100322.44;126998;1098;102586;-82
2022/06/30 07:18:52;;;;;;;13.33;7.07;;;;;;;28.94;47.34;100329.02;126868;1099;102142;-81
2022/06/30 07:21:28;;;;;;;14.33;6.72;;;;;;;29.09;47.29;100323.88;126937;1098;102381;-80
2022/06/30 07:24:03;;;;;;;16.20;7.17;;;;;;;29.29;46.74;100329.30;126163;1102;102962;-81
2022/06/30 07:26:35;;;;;;;12.40;6.43;;;;;;;29.41;46.36;100325.18;126201;1100;101816;-81
2022/06/30 07:29:09;;;;;;;12.30;6.47;;;;;;;29.54;46.30;100328.19;126134;1101;103933;-80
2022/06/30 07:31:47;;;;;;;13.83;6.40;;;;;;;29.68;45.92;100325.72;126102;1102;108710;-81
2022/06/30 07:34:46;;;;;;;16.10;6.90;;;;;;;29.88;45.98;100316.70;126134;1101;103338;-82
2022/06/30 07:37:40;;;;;;;16.50;6.67;;;;;;;30.10;45.52;100315.67;125634;1102;104214;-80
2022/06/30 07:40:18;;;;;;;13.13;6.73;;;;;;;30.30;45.43;100334.50;125397;1102;102743;-80
2022/06/30 07:42:55;;;;;;;15.30;6.80;;;;;;;30.49;44.96;100321.94;124459;1102;104355;-79
2022/06/30 07:45:47;;;;;;;10.87;6.60;;;;;;;30.59;43.92;100328.62;125394;1102;103010;-81
2022/06/30 07:52:15;;;;;;;15.30;6.70;;;;;;;31.01;44.27;100338.27;125035;1099;111952;-81
2022/06/30 07:54:55;;;;;;;14.60;6.10;;;;;;;31.18;42.65;100349.09;124792;1099;104258;-80
2022/06/30 07:57:38;;;;;;;12.27;5.97;;;;;;;31.35;42.79;100350.02;125288;1099;104182;-81
2022/06/30 08:00:47;;;;;;;;;;;;;;;;;;;;;
2022/06/30 08:03:26;;;;;;;15.17;6.57;;;;;;;31.44;42.59;100349.52;126128;1099;103505;-80
2022/06/30 08:06:03;;;;;;;14.70;6.83;;;;;;;31.33;41.26;100368.20;125552;1102;104354;-80
2022/06/30 08:08:39;;;;;;;13.30;6.27;;;;;;;31.31;41.72;100370.13;125483;1102;102880;-83
2022/06/30 08:11:14;;;;;;;12.30;6.45;;;;;;;31.40;41.56;100369.64;124783;1102;104443;-80
2022/06/30 08:13:47;;;;;;;20.23;6.20;;;;;;;31.56;41.55;100385.13;124705;1102;104503;-80
2022/06/30 08:16:23;;;;;;;12.37;6.03;;;;;;;31.68;41.10;100379.00;124652;1100;104299;-81
2022/06/30 08:19:02;;;;;;;15.20;6.47;;;;;;;31.71;40.35;100379.73;124702;1102;104511;-82
2022/06/30 08:21:36;;;;;;;13.80;6.80;;;;;;;31.72;39.85;100384.17;125528;1102;102959;-80
2022/06/30 08:24:11;;;;;;;;;;;;;;;31.80;39.90;100397.33;125574;1102;104608;-81
2022/06/30 08:27:02;;;;;;;12.67;6.13;;;;;;;31.74;40.23;100394.95;124535;1102;104345;-82
2022/06/30 08:29:44;;;;;;;10.97;6.27;;;;;;;31.53;40.06;100402.39;124810;1102;104452;-80
2022/06/30 08:32:24;;;;;;;11.90;6.33;;;;;;;31.48;40.22;100397.20;125524;1102;104091;-82
2022/06/30 08:35:02;;;;;;;10.93;6.00;;;;;;;31.34;39.93;100399.78;125635;1102;103781;-80
2022/06/30 08:37:49;;;;;;;10.57;5.93;;;;;;;31.25;39.96;100400.27;125759;1099;104192;-80
2022/06/30 08:43:17;;;;;;;13.13;6.47;;;;;;;31.05;39.79;100401.30;126961;1098;102916;-79
2022/06/30 08:45:49;;;;;;;10.13;6.07;;;;;;;31.06;39.88;100401.22;126861;1098;102610;-81
2022/06/30 08:48:30;;;;;;;11.03;5.43;;;;;;;31.15;39.33;100407.97;126918;1099;102429;-81
2022/06/30 08:51:13;;;;;;;17.33;6.33;;;;;;;31.34;39.75;100408.78;126906;1099;103192;-82
2022/06/30 08:53:53;;;;;;;11.93;5.60;;;;;;;31.61;40.09;100412.86;126328;1098;108105;-80
2022/06/30 08:56:32;;;;;;;10.58;5.60;;;;;;;31.76;39.20;100403.00;125101;1098;102294;-78
2022/06/30 08:59:24;;;;;;;10.00;6.03;;;;;;;31.90;39.33;100401.30;125434;1099;104165;-80
2022/06/30 09:01:57;;;;;;;9.70;5.50;;;;;;;32.09;39.48;100408.45;125458;1099;102724;-79
2022/06/30 09:04:43;;;;;;;11.50;6.23;;;;;;;32.22;38.58;100406.78;125435;1099;103304;-80
2022/06/30 09:10:22;;;;;;;12.53;6.20;;;;;;;32.35;38.15;100414.23;124972;1099;103246;-80
2022/06/30 09:13:07;;;;;;;13.22;6.12;;;;;;;32.38;37.78;100403.20;126179;1099;103531;-83
2022/06/30 09:15:43;;;;;;;13.10;6.13;;;;;;;32.48;37.77;100406.30;126565;1098;103293;-82
2022/06/30 09:18:28;;;;;;;9.07;5.83;;;;;;;32.61;37.08;100408.22;125100;1099;104159;-79
2022/06/30 09:21:18;;;;;;;16.40;6.40;;;;;;;32.64;37.54;100406.27;125008;1099;104245;-79
2022/06/30 09:23:51;;;;;;;12.87;6.20;;;;;;;32.78;36.85;100403.66;125385;1099;104237;-80
2022/06/30 09:26:24;;;;;;;10.43;5.83;;;;;;;33.05;37.10;100400.25;125153;1099;104224;-80
2022/06/30 09:28:59;;;;;;;16.40;6.10;;;;;;;33.40;37.02;100397.29;126079;1099;102357;-82
2022/06/30 09:31:42;;;;;;;11.83;6.20;;;;;;;33.72;36.60;100402.59;124747;1099;104165;-80
2022/06/30 09:34:21;;;;;;;10.83;6.20;;;;;;;33.84;36.35;100401.81;125027;1099;104197;-79
2022/06/30 09:36:58;;;;;;;16.30;6.27;;;;;;;33.58;36.02;100389.81;125128;1099;104252;-79
2022/06/30 09:39:30;;;;;;;11.33;6.50;;;;;;;33.49;36.08;100394.00;126157;1099;103710;-80
2022/06/30 09:42:06;;;;;;;11.80;6.70;;;;;;;33.14;35.72;100388.83;125270;1098;104293;-81
2022/06/30 09:44:55;;;;;;;10.73;6.10;;;;;;;32.88;36.02;100387.67;125363;1099;119101;-79
2022/06/30 09:47:28;;;;;;;13.80;7.00;;;;;;;32.66;36.23;100386.22;125592;1099;103191;-80
2022/06/30 09:50:10;;;;;;;10.97;6.20;;;;;;;32.24;36.46;100371.41;125427;1099;103327;-81
2022/06/30 09:52:44;;;;;;;8.67;6.17;;;;;;;32.08;36.67;100360.52;125659;1099;104562;-81
2022/06/30 09:55:40;;;;;;;9.47;5.90;;;;;;;31.85;37.40;100356.38;125111;1099;104217;-80
2022/06/30 09:58:20;;;;;;;12.03;6.47;;;;;;;31.83;37.71;100332.05;126089;1099;104240;-81
2022/06/30 10:00:57;;;;;;;15.17;6.90;;;;;;;31.77;38.53;100337.81;126200;1099;104251;-80
2022/06/30 10:03:30;;;;;;;14.50;6.97;;;;;;;31.58;39.56;100343.38;126235;1099;102977;-81
2022/06/30 10:06:19;;;;;;;13.67;7.30;;;;;;;31.46;40.71;100346.72;126302;1099;102480;-80
2022/06/30 10:08:53;;;;;;;11.67;6.77;;;;;;;31.31;41.26;100337.60;126262;1098;104191;-81
2022/06/30 10:11:29;;;;;;;17.20;7.40;;;;;;;31.01;41.04;100340.98;125276;1099;104264;-81
2022/06/30 10:14:03;;;;;;;12.73;7.00;;;;;;;30.83;41.76;100349.05;126235;1099;104357;-81
2022/06/30 10:16:43;;;;;;;14.00;7.50;;;;;;;30.69;41.98;100346.17;126379;1099;102295;-82
2022/06/30 10:19:19;;;;;;;10.57;6.60;;;;;;;30.59;42.06;100344.87;126166;1098;104204;-80
2022/06/30 10:21:51;;;;;;;12.82;7.00;;;;;;;30.45;42.51;100334.76;125218;1099;104242;-80
2022/06/30 10:24:25;;;;;;;13.20;7.10;;;;;;;30.49;42.53;100308.41;125537;1099;102785;-81
2022/06/30 10:27:14;;;;;;;13.57;6.90;;;;;;;30.63;42.75;100282.36;125629;1102;102707;-82
2022/06/30 10:29:53;;;;;;;13.03;7.13;;;;;;;30.79;42.84;100281.56;125757;1099;103195;-81
2022/06/30 10:32:48;;;;;;;12.67;7.27;;;;;;;30.91;42.53;100269.23;124867;1102;104430;-81
2022/06/30 10:35:33;;;;;;;16.60;7.33;;;;;;;31.00;42.64;100275.05;125596;1099;104265;-82
2022/06/30 10:38:15;;;;;;;13.23;7.23;;;;;;;31.19;42.95;100296.62;125590;1099;104211;-80
2022/06/30 10:41:00;;;;;;;14.07;7.17;;;;;;;31.24;43.00;100287.38;125447;1102;104072;-82
2022/06/30 10:43:35;;;;;;;14.53;6.90;;;;;;;31.28;42.96;100288.98;125555;1102;102866;-81
2022/06/30 10:49:23;;;;;;;11.60;6.30;;;;;;;31.32;41.93;100276.98;125555;1099;102721;-82
2022/06/30 10:52:28;;;;;;;10.17;6.50;;;;;;;31.31;41.60;100276.12;125564;1102;102781;-81
2022/06/30 10:55:12;;;;;;;10.72;6.12;;;;;;;31.35;41.09;100276.82;125594;1099;104226;-82
2022/06/30 10:58:13;;;;;;;8.57;5.97;;;;;;;31.45;40.60;100283.50;126155;1099;104267;-82
2022/06/30 11:01:08;;;;;;;10.47;6.30;;;;;;;31.62;39.90;100292.55;125779;1099;104172;-81
2022/06/30 11:04:05;;;;;;;9.17;6.13;;;;;;;31.64;38.67;100296.95;126155;1098;104198;-81
2022/06/30 11:07:24;;;;;;;10.00;6.00;;;;;;;32.03;38.90;100298.37;125586;1099;118840;-82
2022/06/30 11:10:26;;;;;;;15.87;6.20;;;;;;;32.37;37.84;100318.17;125689;1099;103116;-82
2022/06/30 11:13:32;;;;;;;9.60;5.97;;;;;;;32.64;37.56;100328.41;125586;1102;103068;-82
2022/06/30 11:16:22;;;;;;;12.93;5.70;;;;;;;32.85;37.05;100320.83;125487;1102;104227;-82
2022/06/30 11:19:18;;;;;;;;;;;;;;;;;;;;;
2022/06/30 11:21:56;;;;;;;9.57;5.50;;;;;;;32.37;35.77;100328.17;125485;1102;103623;-81
2022/06/30 11:24:38;;;;;;;7.47;5.33;;;;;;;32.30;36.22;100333.06;125430;1102;104345;-82
2022/06/30 11:27:42;;;;;;;12.27;5.73;;;;;;;32.20;36.54;100316.44;125498;1102;104285;-81
2022/06/30 11:30:35;;;;;;;9.73;5.60;;;;;;;32.06;36.35;100319.91;125381;1099;103075;-81
2022/06/30 11:33:17;;;;;;;11.63;5.80;;;;;;;32.01;36.67;100316.59;124635;1099;104339;-81
2022/06/30 11:36:09;;;;;;;12.90;5.60;;;;;;;32.04;36.41;100315.55;125626;1102;104303;-83
2022/06/30 11:38:58;;;;;;;8.40;5.37;;;;;;;32.11;36.55;100310.67;125785;1099;103456;-82
2022/06/30 11:44:23;;;;;;;10.83;5.50;;;;;;;32.34;36.20;100303.91;125570;1099;103148;-80
2022/06/30 11:46:55;;;;;;;;;;;;;;;32.44;35.72;100294.24;125083;1099;104334;-82
2022/06/30 11:49:42;;;;;;;11.33;5.23;;;;;;;32.61;35.94;100294.14;124919;1102;103153;-81
2022/06/30 11:52:38;;;;;;;7.20;4.20;;;;;;;32.53;34.97;100295.55;125102;1099;104322;-81
2022/06/30 11:55:17;;;;;;;7.17;4.37;;;;;;;32.28;34.89;100306.98;126333;1099;101988;-80
2022/06/30 11:57:58;;;;;;;9.07;4.17;;;;;;;32.15;34.58;100296.84;126582;1098;110511;-81
2022/06/30 12:00:34;;;;;;;8.80;4.43;;;;;;;32.24;35.04;100296.30;124914;1099;102606;-80
2022/06/30 12:03:13;;;;;;;8.40;4.30;;;;;;;32.19;34.60;100295.67;125231;1098;104219;-79
2022/06/30 12:05:57;;;;;;;7.33;4.57;;;;;;;32.21;35.03;100296.48;125126;1099;102981;-80
2022/06/30 12:08:36;;;;;;;8.20;4.50;;;;;;;32.31;34.56;100290.52;125697;1098;104643;-81
2022/06/30 12:11:13;;;;;;;7.93;3.90;;;;;;;32.46;34.54;100291.44;125347;1099;103308;-81
2022/06/30 12:13:59;;;;;;;7.40;4.10;;;;;;;32.70;34.48;100281.00;126018;1099;104211;-82
2022/06/30 12:16:39;;;;;;;7.83;4.20;;;;;;;32.86;33.82;100292.66;125651;1099;103225;-82
2022/06/30 12:19:22;;;;;;;8.33;4.40;;;;;;;32.92;33.41;100272.41;124805;1102;104412;-82
2022/06/30 12:22:02;;;;;;;6.53;4.07;;;;;;;33.04;32.89;100281.66;124565;1101;104304;-79
2022/06/30 12:24:56;;;;;;;6.20;4.03;;;;;;;33.30;33.05;100280.94;124569;1102;104408;-81
2022/06/30 12:27:52;;;;;;;8.90;4.30;;;;;;;33.67;32.77;100266.82;124795;1100;104034;-80